Time;durP1;ratioP1;P1;durP2;ratioP2;P2;SDS_P1;SDS_P2;PMS_P1;PMS_P2;Temp;Humidity;BMP_temperature;BMP_pressure;BME280_temperature;BME280_humidity;BME280_pressure;Samples;Min_cycle;Max_cycle;Signal;HPM_P1;HPM_P2
2022/05/07 06:07:43;;;;;;;11.50;4.90;;;;;;;;;;5240293;23;20460;-59
2022/05/07 06:10:09;;;;;;;10.13;4.28;;;;;;;;;;4822112;29;20073;-60
2022/05/07 06:12:35;;;;;;;8.68;4.22;;;;;;;;;;4822198;29;20123;-61
2022/05/07 06:15:02;;;;;;;10.20;4.70;;;;;;;;;;4822532;29;20030;-61
2022/05/07 06:17:28;;;;;;;9.93;4.85;;;;;;;;;;4822256;29;20083;-61
2022/05/07 06:19:54;;;;;;;9.95;4.40;;;;;;;;;;4822094;29;20083;-61
2022/05/07 06:22:20;;;;;;;8.60;4.63;;;;;;;;;;4822021;29;20534;-61
2022/05/07 06:27:31;;;;;;;12.82;4.65;;;;;;;;;;4822219;29;20046;-61
2022/05/07 06:30:01;;;;;;;11.40;4.70;;;;;;;;;;4821311;29;20022;-61
2022/05/07 06:32:34;;;;;;;10.85;4.50;;;;;;;;;;4822243;29;20057;-61
2022/05/07 06:35:03;;;;;;;9.98;4.50;;;;;;;;;;4822257;29;20041;-61
2022/05/07 06:37:29;;;;;;;13.40;4.60;;;;;;;;;;4821954;29;20026;-61
2022/05/07 06:39:55;;;;;;;11.25;4.53;;;;;;;;;;4822130;29;20046;-61
2022/05/07 06:42:21;;;;;;;9.75;4.40;;;;;;;;;;4822077;29;20403;-61
2022/05/07 06:44:47;;;;;;;10.48;4.43;;;;;;;;;;4821948;29;20067;-61
2022/05/07 06:47:14;;;;;;;8.25;4.20;;;;;;;;;;4822195;29;20031;-61
2022/05/07 06:49:42;;;;;;;8.60;3.90;;;;;;;;;;4821927;29;20075;-61
2022/05/07 06:52:09;;;;;;;6.45;3.47;;;;;;;;;;4821685;29;20463;-61
2022/05/07 06:54:35;;;;;;;8.13;3.72;;;;;;;;;;4821505;29;20114;-61
2022/05/07 06:57:03;;;;;;;8.57;3.53;;;;;;;;;;4821742;29;20045;-61
2022/05/07 06:59:29;;;;;;;5.85;3.30;;;;;;;;;;4821900;29;20046;-60
2022/05/07 07:01:55;;;;;;;15.65;3.60;;;;;;;;;;4821880;29;20386;-61
2022/05/07 07:04:22;;;;;;;7.97;3.85;;;;;;;;;;4821338;29;20030;-62
2022/05/07 07:06:49;;;;;;;9.73;3.50;;;;;;;;;;4813042;29;20029;-58
2022/05/07 07:09:16;;;;;;;11.35;3.10;;;;;;;;;;4799890;29;20523;-59
2022/05/07 07:11:42;;;;;;;7.57;3.22;;;;;;;;;;4793594;29;20091;-59
2022/05/07 07:14:08;;;;;;;9.75;3.35;;;;;;;;;;4789283;29;20484;-59
2022/05/07 07:16:34;;;;;;;8.95;3.33;;;;;;;;;;4793576;29;20436;-58
2022/05/07 07:19:00;;;;;;;10.25;3.90;;;;;;;;;;4803010;29;20125;-64
2022/05/07 07:21:26;;;;;;;9.50;3.72;;;;;;;;;;4802976;29;20053;-62
2022/05/07 07:23:52;;;;;;;14.45;4.20;;;;;;;;;;4803167;29;20041;-62
2022/05/07 07:26:19;;;;;;;6.95;3.95;;;;;;;;;;4802893;29;20027;-60
2022/05/07 07:28:45;;;;;;;11.68;3.55;;;;;;;;;;4803698;29;20488;-58
2022/05/07 07:31:12;;;;;;;9.00;3.45;;;;;;;;;;4803635;29;20042;-62
2022/05/07 07:33:38;;;;;;;8.13;3.38;;;;;;;;;;4803348;29;20099;-60
2022/05/07 07:36:05;;;;;;;9.18;3.17;;;;;;;;;;4803132;29;20039;-61
2022/05/07 07:38:32;;;;;;;10.32;3.83;;;;;;;;;;4802738;29;20043;-59
2022/05/07 07:40:58;;;;;;;9.70;3.70;;;;;;;;;;4804840;29;20514;-59
2022/05/07 07:43:24;;;;;;;10.77;3.60;;;;;;;;;;4806371;29;20038;-60
2022/05/07 07:48:35;;;;;;;12.02;3.65;;;;;;;;;;4800603;29;20104;-73
2022/05/07 07:51:01;;;;;;;8.95;3.60;;;;;;;;;;4803551;29;20027;-59
2022/05/07 07:53:28;;;;;;;9.45;3.13;;;;;;;;;;4805264;29;20046;-59
2022/05/07 07:55:54;;;;;;;7.95;2.90;;;;;;;;;;4806312;29;20038;-61
2022/05/07 07:58:20;;;;;;;12.07;4.13;;;;;;;;;;4805752;29;20050;-62
2022/05/07 08:00:46;;;;;;;6.78;2.75;;;;;;;;;;4805998;29;20031;-59
2022/05/07 08:03:13;;;;;;;10.48;3.05;;;;;;;;;;4805632;29;20039;-59
2022/05/07 08:05:40;;;;;;;7.63;3.53;;;;;;;;;;4805251;29;20038;-60
2022/05/07 08:13:38;;;;;;;9.32;2.92;;;;;;;;;;4803485;29;20415;-61
2022/05/07 08:16:04;;;;;;;7.85;2.67;;;;;;;;;;4805923;29;20503;-63
2022/05/07 08:18:31;;;;;;;8.73;2.80;;;;;;;;;;4805268;29;20465;-59
2022/05/07 08:20:57;;;;;;;5.95;2.78;;;;;;;;;;4805268;29;20089;-59
2022/05/07 08:23:24;;;;;;;6.07;2.50;;;;;;;;;;4805112;29;20023;-64
2022/05/07 08:25:51;;;;;;;9.32;3.15;;;;;;;;;;4805038;29;20034;-60
2022/05/07 08:28:17;;;;;;;6.07;2.90;;;;;;;;;;4804801;29;20034;-59
2022/05/07 08:30:44;;;;;;;7.70;2.47;;;;;;;;;;4795829;29;20031;-59
2022/05/07 08:33:10;;;;;;;8.10;3.25;;;;;;;;;;4794399;29;20491;-58
2022/05/07 08:35:36;;;;;;;6.22;2.90;;;;;;;;;;4808890;29;20039;-62
2022/05/07 08:38:02;;;;;;;7.50;2.40;;;;;;;;;;4793497;29;20496;-57
2022/05/07 08:40:28;;;;;;;8.00;3.13;;;;;;;;;;4787458;30;20035;-59
2022/05/07 08:42:55;;;;;;;9.00;3.15;;;;;;;;;;4787524;30;20032;-62
2022/05/07 08:45:21;;;;;;;6.00;2.80;;;;;;;;;;4796833;29;20027;-60
2022/05/07 08:47:51;;;;;;;6.60;2.67;;;;;;;;;;4795256;29;20047;-58
2022/05/07 08:50:18;;;;;;;9.95;2.60;;;;;;;;;;4795285;29;20027;-58
2022/05/07 08:52:46;;;;;;;8.32;2.80;;;;;;;;;;4795719;29;20458;-61
2022/05/07 08:55:13;;;;;;;9.02;2.97;;;;;;;;;;4795575;29;20237;-58
2022/05/07 08:57:40;;;;;;;7.85;2.50;;;;;;;;;;4795223;29;20035;-59
2022/05/07 09:00:06;;;;;;;7.47;2.67;;;;;;;;;;4796137;29;20117;-58
2022/05/07 09:02:48;;;;;;;9.50;2.60;;;;;;;;;;4794193;29;20023;-59
2022/05/07 09:05:14;;;;;;;7.28;2.60;;;;;;;;;;4789076;29;20511;-60
2022/05/07 09:07:51;;;;;;;8.00;3.30;;;;;;;;;;4797395;29;20149;-61
2022/05/07 09:10:19;;;;;;;8.63;2.85;;;;;;;;;;4799582;29;20047;-59
2022/05/07 09:12:45;;;;;;;5.05;2.50;;;;;;;;;;4797746;29;20042;-58
2022/05/07 09:15:11;;;;;;;10.57;2.70;;;;;;;;;;4796224;29;20034;-62
2022/05/07 09:17:38;;;;;;;7.90;2.88;;;;;;;;;;4796147;29;20031;-59
2022/05/07 09:20:11;;;;;;;8.88;2.92;;;;;;;;;;4794958;29;20039;-61
2022/05/07 09:22:48;;;;;;;6.57;2.72;;;;;;;;;;4795309;29;20015;-57
2022/05/07 09:25:19;;;;;;;6.55;2.63;;;;;;;;;;4795540;29;20049;-59
2022/05/07 09:27:46;;;;;;;5.55;2.83;;;;;;;;;;4795007;29;20530;-59
2022/05/07 09:30:13;;;;;;;6.05;2.35;;;;;;;;;;4796667;29;20061;-58
2022/05/07 09:32:39;;;;;;;6.07;2.55;;;;;;;;;;4795564;29;20022;-58
2022/05/07 09:38:04;;;;;;;8.80;3.40;;;;;;;;;;4801054;29;20038;-61
2022/05/07 09:40:30;;;;;;;7.25;2.70;;;;;;;;;;4802628;29;20035;-58
2022/05/07 09:43:00;;;;;;;10.15;3.13;;;;;;;;;;4798785;29;20477;-63
2022/05/07 09:45:27;;;;;;;5.40;2.80;;;;;;;;;;4817043;29;20412;-59
2022/05/07 09:47:55;;;;;;;8.45;3.30;;;;;;;;;;4804435;29;20046;-59
2022/05/07 09:50:43;;;;;;;7.05;2.70;;;;;;;;;;4804345;29;20027;-61
2022/05/07 09:58:42;;;;;;;7.78;2.85;;;;;;;;;;4804196;29;20049;-61
2022/05/07 10:01:25;;;;;;;8.68;3.03;;;;;;;;;;4804230;29;20027;-61
2022/05/07 10:04:09;;;;;;;8.07;2.97;;;;;;;;;;4797990;29;20027;-60
2022/05/07 10:06:41;;;;;;;5.25;2.80;;;;;;;;;;4786152;30;20043;-62
2022/05/07 10:09:23;;;;;;;6.60;2.85;;;;;;;;;;4798963;29;20042;-58
2022/05/07 10:11:56;;;;;;;8.55;2.63;;;;;;;;;;4802959;29;20476;-60
2022/05/07 10:14:30;;;;;;;8.38;3.00;;;;;;;;;;4801939;29;20076;-63
2022/05/07 10:16:59;;;;;;;4.43;2.53;;;;;;;;;;4801010;29;20062;-59
2022/05/07 10:19:44;;;;;;;6.85;3.00;;;;;;;;;;4803389;29;20038;-59
2022/05/07 10:22:24;;;;;;;9.73;3.00;;;;;;;;;;4803469;29;20102;-60
2022/05/07 10:25:02;;;;;;;9.95;3.38;;;;;;;;;;4802178;29;20499;-61
2022/05/07 10:27:33;;;;;;;11.00;3.50;;;;;;;;;;4801713;29;20031;-61
2022/05/07 10:30:21;;;;;;;7.70;3.30;;;;;;;;;;4803297;29;20022;-61
2022/05/07 10:32:57;;;;;;;10.32;3.42;;;;;;;;;;4801496;29;20061;-62
2022/05/07 10:35:42;;;;;;;10.85;3.10;;;;;;;;;;4801559;29;20480;-61
2022/05/07 10:38:08;;;;;;;8.75;3.30;;;;;;;;;;4800674;29;20046;-61
2022/05/07 10:40:35;;;;;;;12.52;3.10;;;;;;;;;;4803299;29;20149;-62
2022/05/07 10:43:01;;;;;;;8.63;3.38;;;;;;;;;;4803301;29;20034;-61
2022/05/07 10:45:27;;;;;;;9.85;3.15;;;;;;;;;;4802873;29;20042;-61
2022/05/07 10:47:57;;;;;;;8.15;3.38;;;;;;;;;;4803595;29;20376;-61
2022/05/07 10:50:23;;;;;;;7.88;2.80;;;;;;;;;;4803252;29;20035;-61
2022/05/07 10:52:56;;;;;;;9.55;2.90;;;;;;;;;;4803474;29;20038;-61
2022/05/07 10:55:27;;;;;;;12.15;3.35;;;;;;;;;;4802246;29;20034;-61
2022/05/07 10:57:53;;;;;;;8.40;3.28;;;;;;;;;;4802668;29;20526;-60
2022/05/07 11:00:20;;;;;;;12.75;3.40;;;;;;;;;;4802698;29;20092;-61
2022/05/07 11:02:48;;;;;;;9.43;3.53;;;;;;;;;;4803633;29;20029;-61
2022/05/07 11:05:15;;;;;;;6.55;2.90;;;;;;;;;;4803155;29;20035;-61
2022/05/07 11:07:42;;;;;;;10.73;3.40;;;;;;;;;;4803335;29;20567;-61
2022/05/07 11:10:08;;;;;;;10.50;3.53;;;;;;;;;;4803036;29;20042;-60
2022/05/07 11:12:39;;;;;;;7.90;3.17;;;;;;;;;;4803658;29;20066;-61
2022/05/07 11:15:06;;;;;;;12.88;2.97;;;;;;;;;;4786443;29;20036;-62
2022/05/07 11:17:33;;;;;;;8.65;2.90;;;;;;;;;;4789127;30;20027;-61
2022/05/07 11:20:00;;;;;;;7.50;3.05;;;;;;;;;;4792135;29;20099;-63
2022/05/07 11:22:30;;;;;;;6.53;2.90;;;;;;;;;;4801427;29;20027;-61
2022/05/07 11:25:00;;;;;;;12.43;3.10;;;;;;;;;;4795604;29;20030;-60
2022/05/07 11:27:30;;;;;;;8.50;2.97;;;;;;;;;;4803768;29;20031;-62
2022/05/07 11:29:57;;;;;;;7.18;3.10;;;;;;;;;;4797460;29;20031;-63
2022/05/07 11:32:23;;;;;;;12.00;3.00;;;;;;;;;;4794075;29;20051;-60
2022/05/07 11:34:56;;;;;;;8.13;2.80;;;;;;;;;;4796919;29;20043;-60
2022/05/07 11:37:23;;;;;;;5.72;2.65;;;;;;;;;;4797201;29;20038;-61
2022/05/07 11:39:55;;;;;;;6.88;2.75;;;;;;;;;;4805197;29;20059;-60
2022/05/07 11:42:27;;;;;;;9.13;2.55;;;;;;;;;;4806560;29;20031;-60
2022/05/07 11:47:38;;;;;;;14.20;3.13;;;;;;;;;;4789038;29;20009;-59
2022/05/07 11:50:08;;;;;;;6.15;2.88;;;;;;;;;;4805549;29;20392;-61
2022/05/07 11:52:35;;;;;;;7.45;3.17;;;;;;;;;;4806195;29;20027;-62
2022/05/07 11:55:08;;;;;;;5.38;3.10;;;;;;;;;;4806089;29;20142;-62
2022/05/07 11:57:38;;;;;;;8.18;3.28;;;;;;;;;;4805965;29;20096;-62
2022/05/07 12:00:16;;;;;;;10.15;2.97;;;;;;;;;;4806141;29;20042;-62
2022/05/07 12:02:49;;;;;;;6.60;3.13;;;;;;;;;;4805981;29;20037;-62
2022/05/07 12:05:15;;;;;;;6.03;2.90;;;;;;;;;;4806259;29;20031;-62
2022/05/07 12:07:42;;;;;;;6.55;2.80;;;;;;;;;;4805972;29;20137;-62
2022/05/07 12:10:08;;;;;;;9.82;2.80;;;;;;;;;;4806157;29;20043;-62
2022/05/07 12:12:34;;;;;;;5.03;2.53;;;;;;;;;;4806067;29;20092;-62
2022/05/07 12:15:00;;;;;;;4.68;2.53;;;;;;;;;;4806295;29;20035;-62
2022/05/07 12:20:11;;;;;;;6.30;2.90;;;;;;;;;;4805869;29;20054;-62
2022/05/07 12:30:51;;;;;;;7.10;3.22;;;;;;;;;;4806110;29;20074;-62
2022/05/07 12:33:17;;;;;;;6.00;2.55;;;;;;;;;;4805721;29;20035;-62
2022/05/07 12:35:43;;;;;;;7.60;2.88;;;;;;;;;;4805325;29;20039;-62
2022/05/07 12:38:10;;;;;;;7.72;3.10;;;;;;;;;;4805193;29;20065;-62
2022/05/07 12:40:36;;;;;;;7.60;2.80;;;;;;;;;;4805406;29;20030;-62
2022/05/07 12:43:02;;;;;;;6.43;2.90;;;;;;;;;;4805811;29;20034;-62
2022/05/07 12:45:29;;;;;;;7.15;2.50;;;;;;;;;;4805338;29;20055;-62
2022/05/07 12:47:55;;;;;;;5.80;2.70;;;;;;;;;;4805642;29;20081;-62
2022/05/07 12:50:21;;;;;;;4.40;2.55;;;;;;;;;;4805507;29;20122;-61
2022/05/07 12:52:47;;;;;;;8.55;2.60;;;;;;;;;;4805327;29;20070;-61
2022/05/07 12:55:13;;;;;;;7.25;2.35;;;;;;;;;;4805450;29;20027;-62
2022/05/07 12:57:39;;;;;;;7.85;2.50;;;;;;;;;;4805175;29;20476;-62
2022/05/07 13:00:06;;;;;;;11.02;2.63;;;;;;;;;;4805280;29;20047;-62
2022/05/07 13:02:32;;;;;;;4.45;2.50;;;;;;;;;;4805607;29;20023;-62
2022/05/07 13:04:58;;;;;;;9.75;2.70;;;;;;;;;;4805154;29;20030;-62
2022/05/07 13:07:24;;;;;;;9.75;2.78;;;;;;;;;;4804916;29;20037;-61
2022/05/07 13:09:50;;;;;;;7.47;2.53;;;;;;;;;;4804661;29;20488;-61
2022/05/07 13:12:17;;;;;;;4.80;2.40;;;;;;;;;;4805178;29;20736;-62
2022/05/07 13:14:43;;;;;;;7.13;2.38;;;;;;;;;;4804804;29;20027;-62
2022/05/07 13:17:09;;;;;;;7.82;2.40;;;;;;;;;;4804888;29;20464;-62
2022/05/07 13:19:35;;;;;;;5.60;2.58;;;;;;;;;;4804869;29;20043;-62
2022/05/07 13:22:01;;;;;;;7.15;2.70;;;;;;;;;;4804799;29;20109;-61
2022/05/07 13:24:27;;;;;;;6.80;2.33;;;;;;;;;;4804501;29;20696;-62
2022/05/07 13:26:53;;;;;;;7.95;2.60;;;;;;;;;;4802980;29;20039;-62
2022/05/07 13:29:19;;;;;;;8.15;2.78;;;;;;;;;;4804627;29;20031;-62
2022/05/07 13:31:45;;;;;;;9.30;2.72;;;;;;;;;;4804423;29;20037;-62
2022/05/07 13:34:11;;;;;;;8.25;2.53;;;;;;;;;;4804742;29;20065;-61
2022/05/07 13:36:38;;;;;;;9.40;2.65;;;;;;;;;;4804641;29;20400;-62
2022/05/07 13:39:04;;;;;;;10.43;2.70;;;;;;;;;;4803940;29;20038;-62
2022/05/07 13:41:30;;;;;;;5.88;2.70;;;;;;;;;;4804369;29;20042;-62
2022/05/07 13:43:56;;;;;;;7.20;2.60;;;;;;;;;;4804608;29;20035;-62
2022/05/07 13:46:23;;;;;;;9.18;2.75;;;;;;;;;;4804705;29;20395;-62
2022/05/07 13:48:49;;;;;;;5.85;2.83;;;;;;;;;;4804489;29;20487;-62
2022/05/07 13:51:18;;;;;;;6.03;2.65;;;;;;;;;;4804621;29;20072;-62
2022/05/07 13:53:44;;;;;;;5.32;2.70;;;;;;;;;;4804653;29;20540;-62
2022/05/07 13:56:11;;;;;;;8.60;2.80;;;;;;;;;;4804334;29;20035;-61
2022/05/07 13:58:41;;;;;;;6.60;3.30;;;;;;;;;;4804111;29;20039;-61
2022/05/07 14:01:08;;;;;;;9.10;3.08;;;;;;;;;;4804253;29;20395;-61
2022/05/07 14:03:34;;;;;;;6.65;2.58;;;;;;;;;;4804068;29;20031;-61
2022/05/07 14:06:00;;;;;;;6.15;2.90;;;;;;;;;;4804100;29;20072;-61
2022/05/07 14:08:27;;;;;;;8.75;2.97;;;;;;;;;;4803621;29;20055;-62
2022/05/07 14:10:53;;;;;;;6.80;3.03;;;;;;;;;;4803950;29;20430;-61
2022/05/07 14:13:19;;;;;;;7.82;3.28;;;;;;;;;;4804508;29;20039;-60
2022/05/07 14:15:45;;;;;;;6.03;3.08;;;;;;;;;;4803988;29;20034;-60
2022/05/07 14:18:11;;;;;;;10.73;3.58;;;;;;;;;;4804112;29;20035;-61
2022/05/07 14:20:37;;;;;;;7.63;3.15;;;;;;;;;;4804283;29;20104;-61
2022/05/07 14:23:03;;;;;;;7.40;3.20;;;;;;;;;;4804068;29;20124;-61
2022/05/07 14:25:30;;;;;;;6.50;3.33;;;;;;;;;;4803708;29;20064;-61
2022/05/07 14:27:56;;;;;;;9.40;2.97;;;;;;;;;;4804150;29;20023;-61
2022/05/07 14:30:22;;;;;;;11.82;2.95;;;;;;;;;;4804177;29;20027;-61
2022/05/07 14:32:48;;;;;;;7.45;2.72;;;;;;;;;;4803859;29;20031;-61
2022/05/07 14:35:14;;;;;;;5.55;2.55;;;;;;;;;;4804259;29;20031;-61
2022/05/07 14:37:40;;;;;;;6.78;2.80;;;;;;;;;;4803945;29;20027;-61
2022/05/07 14:42:53;;;;;;;7.60;2.53;;;;;;;;;;4803561;29;20061;-61
2022/05/07 14:45:19;;;;;;;8.32;3.03;;;;;;;;;;4803905;29;20072;-61
2022/05/07 14:47:45;;;;;;;7.28;2.70;;;;;;;;;;4803819;29;20062;-62
2022/05/07 14:50:11;;;;;;;8.75;3.10;;;;;;;;;;4804372;29;20031;-61
2022/05/07 14:52:37;;;;;;;11.23;3.03;;;;;;;;;;4807564;29;20054;-61
2022/05/07 14:55:04;;;;;;;7.45;2.72;;;;;;;;;;4807319;29;20035;-61
2022/05/07 14:57:30;;;;;;;7.28;2.90;;;;;;;;;;4807150;29;20031;-61
2022/05/07 14:59:56;;;;;;;8.55;3.25;;;;;;;;;;4807165;29;20046;-61
2022/05/07 15:02:22;;;;;;;8.00;2.72;;;;;;;;;;4807260;29;20027;-61
2022/05/07 15:04:48;;;;;;;5.97;2.50;;;;;;;;;;4807152;29;20027;-61
2022/05/07 15:07:14;;;;;;;8.73;2.80;;;;;;;;;;4806873;29;20111;-61
2022/05/07 15:12:25;;;;;;;8.27;2.72;;;;;;;;;;4807431;29;20491;-62
2022/05/07 15:14:51;;;;;;;7.18;3.03;;;;;;;;;;4807100;29;20031;-61
2022/05/07 15:17:20;;;;;;;9.50;3.50;;;;;;;;;;4807057;29;20101;-61
2022/05/07 15:19:46;;;;;;;5.65;3.17;;;;;;;;;;4806890;29;20134;-61
2022/05/07 15:22:13;;;;;;;8.27;3.00;;;;;;;;;;4807194;29;20111;-61
2022/05/07 15:24:39;;;;;;;7.85;3.10;;;;;;;;;;4807388;29;20037;-61
2022/05/07 15:27:05;;;;;;;6.78;3.00;;;;;;;;;;4806513;29;20114;-61
2022/05/07 15:29:31;;;;;;;11.77;3.17;;;;;;;;;;4806819;29;20039;-61
2022/05/07 15:37:28;;;;;;;7.47;3.13;;;;;;;;;;4806289;29;20502;-61
2022/05/07 15:39:54;;;;;;;5.07;3.17;;;;;;;;;;4806772;29;20485;-61
2022/05/07 15:42:20;;;;;;;7.55;3.15;;;;;;;;;;4806411;29;20034;-61
2022/05/07 15:44:46;;;;;;;8.18;3.45;;;;;;;;;;4806638;29;20083;-61
2022/05/07 15:47:12;;;;;;;7.78;3.47;;;;;;;;;;4806414;29;20030;-61
2022/05/07 15:49:38;;;;;;;6.88;3.20;;;;;;;;;;4806386;29;20113;-61
2022/05/07 15:52:12;;;;;;;8.13;3.72;;;;;;;;;;4806372;29;20070;-61
2022/05/07 15:54:38;;;;;;;7.80;3.22;;;;;;;;;;4806330;29;20041;-61
2022/05/07 15:57:08;;;;;;;10.57;3.65;;;;;;;;;;4805994;29;20027;-61
2022/05/07 15:59:35;;;;;;;8.77;3.60;;;;;;;;;;4806484;29;20100;-62
2022/05/07 16:02:02;;;;;;;7.05;3.25;;;;;;;;;;4805742;29;20038;-61
2022/05/07 16:04:28;;;;;;;10.13;3.35;;;;;;;;;;4806204;29;20035;-61
2022/05/07 16:06:54;;;;;;;6.88;3.00;;;;;;;;;;4806327;29;20079;-61
2022/05/07 16:09:20;;;;;;;8.25;3.42;;;;;;;;;;4806208;29;20087;-61
2022/05/07 16:11:47;;;;;;;9.43;3.20;;;;;;;;;;4805915;29;20058;-61
2022/05/07 16:14:13;;;;;;;8.52;3.60;;;;;;;;;;4806256;29;20050;-61
2022/05/07 16:16:39;;;;;;;7.03;3.30;;;;;;;;;;4806125;29;20488;-61
2022/05/07 16:19:05;;;;;;;7.38;3.35;;;;;;;;;;4806078;29;20416;-61
2022/05/07 16:21:31;;;;;;;7.20;3.63;;;;;;;;;;4805977;29;20027;-61
2022/05/07 16:26:42;;;;;;;9.10;3.33;;;;;;;;;;4805565;29;20107;-61
2022/05/07 16:29:09;;;;;;;7.50;3.38;;;;;;;;;;4805815;29;20050;-62
2022/05/07 16:31:35;;;;;;;6.03;3.28;;;;;;;;;;4806002;29;20069;-61
2022/05/07 16:34:01;;;;;;;9.95;3.58;;;;;;;;;;4805517;29;20503;-61
2022/05/07 16:36:28;;;;;;;8.07;3.25;;;;;;;;;;4805299;29;20034;-61
2022/05/07 16:38:54;;;;;;;9.90;3.42;;;;;;;;;;4805120;29;20047;-61
2022/05/07 16:41:20;;;;;;;7.68;3.60;;;;;;;;;;4805268;29;20063;-61
2022/05/07 16:43:46;;;;;;;9.30;3.42;;;;;;;;;;4805491;29;20023;-61
2022/05/07 16:46:15;;;;;;;7.50;3.28;;;;;;;;;;4805317;29;20488;-61
2022/05/07 16:48:42;;;;;;;8.15;3.30;;;;;;;;;;4804900;29;20031;-60
2022/05/07 16:51:11;;;;;;;12.15;3.55;;;;;;;;;;4805348;29;20065;-63
2022/05/07 16:53:37;;;;;;;9.77;2.90;;;;;;;;;;4805077;29;20030;-61
2022/05/07 16:56:04;;;;;;;7.97;3.50;;;;;;;;;;4804928;29;20031;-61
2022/05/07 16:58:31;;;;;;;6.53;3.55;;;;;;;;;;4804570;29;20042;-62
2022/05/07 17:00:57;;;;;;;7.95;2.97;;;;;;;;;;4805201;29;20035;-60
2022/05/07 17:03:26;;;;;;;7.63;3.35;;;;;;;;;;4805166;29;20026;-61
2022/05/07 17:05:52;;;;;;;10.25;3.70;;;;;;;;;;4805439;29;20407;-62
2022/05/07 17:08:19;;;;;;;11.63;3.65;;;;;;;;;;4804914;29;20133;-58
2022/05/07 17:10:45;;;;;;;11.52;3.72;;;;;;;;;;4804634;29;20705;-60
2022/05/07 17:13:11;;;;;;;7.85;3.15;;;;;;;;;;4803931;29;20031;-58
2022/05/07 17:15:37;;;;;;;10.35;3.58;;;;;;;;;;4804189;29;20031;-61
2022/05/07 17:18:04;;;;;;;10.57;3.50;;;;;;;;;;4803666;29;20026;-61
2022/05/07 17:20:31;;;;;;;10.05;3.17;;;;;;;;;;4803166;29;20046;-60
2022/05/07 17:22:57;;;;;;;8.52;3.40;;;;;;;;;;4804805;29;20030;-62
2022/05/07 17:25:23;;;;;;;10.18;3.10;;;;;;;;;;4804829;29;20163;-61
2022/05/07 17:27:49;;;;;;;6.30;3.50;;;;;;;;;;4804582;29;20030;-61
2022/05/07 17:30:15;;;;;;;11.63;3.40;;;;;;;;;;4788528;29;20070;-58
2022/05/07 17:32:41;;;;;;;8.13;3.72;;;;;;;;;;4804571;29;20142;-59
2022/05/07 17:35:07;;;;;;;9.07;3.75;;;;;;;;;;4804637;29;20035;-62
2022/05/07 17:37:34;;;;;;;7.90;3.70;;;;;;;;;;4804432;29;20426;-61
2022/05/07 17:40:00;;;;;;;8.27;3.83;;;;;;;;;;4804413;29;20099;-60
2022/05/07 17:42:27;;;;;;;8.52;3.35;;;;;;;;;;4804143;29;20035;-61
2022/05/07 17:44:53;;;;;;;9.77;3.42;;;;;;;;;;4804148;29;20190;-62
2022/05/07 17:47:19;;;;;;;12.15;3.60;;;;;;;;;;4804534;29;20057;-62
2022/05/07 17:49:45;;;;;;;7.00;3.70;;;;;;;;;;4804243;29;20066;-61
2022/05/07 17:52:11;;;;;;;8.30;4.40;;;;;;;;;;4804099;29;20038;-61
2022/05/07 17:54:38;;;;;;;10.93;4.03;;;;;;;;;;4804274;29;20106;-62
2022/05/07 17:57:04;;;;;;;8.80;4.03;;;;;;;;;;4803746;29;20027;-62
2022/05/07 17:59:30;;;;;;;8.82;3.60;;;;;;;;;;4804432;29;20391;-62
2022/05/07 18:01:59;;;;;;;8.45;3.80;;;;;;;;;;4804180;29;20027;-63
2022/05/07 18:04:26;;;;;;;7.32;3.42;;;;;;;;;;4804187;29;20039;-62
2022/05/07 18:06:53;;;;;;;9.52;3.80;;;;;;;;;;4804322;29;20018;-61
2022/05/07 18:09:20;;;;;;;13.43;4.22;;;;;;;;;;4819066;29;20130;-62
2022/05/07 18:11:46;;;;;;;13.68;4.32;;;;;;;;;;4822079;29;20122;-62
2022/05/07 18:14:14;;;;;;;8.13;4.10;;;;;;;;;;4821504;29;20031;-62
2022/05/07 18:16:40;;;;;;;8.20;3.72;;;;;;;;;;4822240;29;20030;-62
2022/05/07 18:19:07;;;;;;;9.38;4.28;;;;;;;;;;4821990;29;20038;-60
2022/05/07 18:21:36;;;;;;;14.15;3.70;;;;;;;;;;4822345;29;20037;-61
2022/05/07 18:24:02;;;;;;;10.57;3.65;;;;;;;;;;4822104;29;20482;-61
2022/05/07 18:26:28;;;;;;;9.25;3.30;;;;;;;;;;4821578;29;20026;-60
2022/05/07 18:28:54;;;;;;;8.05;3.42;;;;;;;;;;4822148;29;20064;-60
2022/05/07 18:31:21;;;;;;;6.22;3.47;;;;;;;;;;4821726;29;20523;-59
2022/05/07 18:33:48;;;;;;;7.25;3.58;;;;;;;;;;4822047;29;20444;-62
2022/05/07 18:44:27;;;;;;;11.90;3.47;;;;;;;;;;4821727;29;20095;-62
2022/05/07 18:46:53;;;;;;;7.65;3.65;;;;;;;;;;4821176;29;20061;-62
2022/05/07 18:49:19;;;;;;;11.48;3.78;;;;;;;;;;4821581;29;20042;-62
2022/05/07 18:51:46;;;;;;;10.30;3.72;;;;;;;;;;4821525;29;20901;-63
2022/05/07 18:54:12;;;;;;;8.57;3.90;;;;;;;;;;4821486;29;20030;-62
2022/05/07 18:59:23;;;;;;;9.82;3.70;;;;;;;;;;4820914;29;20111;-62
2022/05/07 19:01:49;;;;;;;8.73;3.83;;;;;;;;;;4821526;29;20099;-60
2022/05/07 19:04:15;;;;;;;7.57;3.72;;;;;;;;;;4821511;29;20033;-60
2022/05/07 19:06:41;;;;;;;12.77;3.95;;;;;;;;;;4821708;29;20076;-60
2022/05/07 19:09:07;;;;;;;10.88;3.90;;;;;;;;;;4815615;29;20069;-61
2022/05/07 19:11:35;;;;;;;14.35;4.47;;;;;;;;;;4821487;29;20511;-61
2022/05/07 19:14:01;;;;;;;13.40;3.90;;;;;;;;;;4819953;29;20460;-61
2022/05/07 19:16:27;;;;;;;11.07;4.18;;;;;;;;;;4821365;29;20526;-61
2022/05/07 19:18:53;;;;;;;12.82;4.30;;;;;;;;;;4821387;29;20445;-61
2022/05/07 19:21:19;;;;;;;12.77;4.38;;;;;;;;;;4821475;29;20026;-63
2022/05/07 19:23:46;;;;;;;10.48;4.20;;;;;;;;;;4821437;29;20031;-61
2022/05/07 19:26:12;;;;;;;7.80;3.75;;;;;;;;;;4821461;29;20041;-62
2022/05/07 19:28:38;;;;;;;11.77;4.10;;;;;;;;;;4821219;29;20041;-61
2022/05/07 19:31:06;;;;;;;13.63;4.22;;;;;;;;;;4821513;29;20075;-61
2022/05/07 19:33:33;;;;;;;10.82;4.15;;;;;;;;;;4821652;29;20544;-61
2022/05/07 19:36:04;;;;;;;10.77;4.38;;;;;;;;;;4821523;29;20037;-61
2022/05/07 19:38:30;;;;;;;10.23;4.00;;;;;;;;;;4824631;29;20042;-63
2022/05/07 19:40:56;;;;;;;10.13;4.40;;;;;;;;;;4824444;29;20045;-62
2022/05/07 19:43:23;;;;;;;9.52;4.15;;;;;;;;;;4824332;29;20106;-62
2022/05/07 19:45:49;;;;;;;10.63;4.40;;;;;;;;;;4824633;29;20034;-62
2022/05/07 19:48:16;;;;;;;7.90;4.00;;;;;;;;;;4824441;29;20099;-62
2022/05/07 19:50:42;;;;;;;10.93;4.50;;;;;;;;;;4824564;29;20104;-62
2022/05/07 19:53:08;;;;;;;13.45;5.05;;;;;;;;;;4824449;29;20395;-62
2022/05/07 19:55:34;;;;;;;11.55;4.70;;;;;;;;;;4824450;29;20880;-62
2022/05/07 19:58:00;;;;;;;11.35;4.95;;;;;;;;;;4824012;29;20038;-62
2022/05/07 20:00:26;;;;;;;9.88;4.55;;;;;;;;;;4822984;29;20456;-61
2022/05/07 20:02:52;;;;;;;12.50;5.55;;;;;;;;;;4824295;29;20030;-61
2022/05/07 20:05:19;;;;;;;16.20;5.88;;;;;;;;;;4824166;29;20087;-61
2022/05/07 20:07:45;;;;;;;18.27;5.70;;;;;;;;;;4822132;29;20050;-62
2022/05/07 20:10:11;;;;;;;11.85;5.75;;;;;;;;;;4805951;29;20074;-62
2022/05/07 20:12:37;;;;;;;18.33;6.30;;;;;;;;;;4805167;29;20031;-61
2022/05/07 20:15:04;;;;;;;17.45;6.47;;;;;;;;;;4805253;29;20471;-61
2022/05/07 20:17:31;;;;;;;11.75;5.25;;;;;;;;;;4805961;29;20035;-62
2022/05/07 20:19:57;;;;;;;17.10;6.10;;;;;;;;;;4805886;29;20042;-61
2022/05/07 20:22:24;;;;;;;14.88;6.30;;;;;;;;;;4805683;29;20035;-62
2022/05/07 20:24:50;;;;;;;14.63;6.30;;;;;;;;;;4805588;29;20042;-62
2022/05/07 20:27:18;;;;;;;14.63;6.22;;;;;;;;;;4808241;29;20034;-61
2022/05/07 20:29:44;;;;;;;13.75;6.20;;;;;;;;;;4813636;29;20086;-61
2022/05/07 20:32:11;;;;;;;14.48;6.63;;;;;;;;;;4804562;29;20041;-60
2022/05/07 20:34:37;;;;;;;16.70;6.05;;;;;;;;;;4805669;29;20083;-60
2022/05/07 20:37:03;;;;;;;13.70;6.05;;;;;;;;;;4805355;29;20030;-60
2022/05/07 20:39:30;;;;;;;12.77;5.60;;;;;;;;;;4801034;29;20055;-60
2022/05/07 20:41:56;;;;;;;12.40;5.70;;;;;;;;;;4805018;29;20156;-61
2022/05/07 20:47:07;;;;;;;15.18;5.60;;;;;;;;;;4804538;29;20539;-60
2022/05/07 20:49:33;;;;;;;13.27;6.45;;;;;;;;;;4804365;29;20081;-60
2022/05/07 20:52:00;;;;;;;17.35;6.15;;;;;;;;;;4804862;29;20494;-61
2022/05/07 20:54:27;;;;;;;19.27;6.45;;;;;;;;;;4804438;29;20053;-61
2022/05/07 20:56:53;;;;;;;19.98;8.07;;;;;;;;;;4804398;29;20476;-61
2022/05/07 20:59:20;;;;;;;21.80;9.43;;;;;;;;;;4805266;29;20039;-59
2022/05/07 21:01:50;;;;;;;20.52;9.50;;;;;;;;;;4803545;29;20763;-60
2022/05/07 21:04:19;;;;;;;30.08;12.68;;;;;;;;;;4819168;29;20049;-60
2022/05/07 21:06:46;;;;;;;26.58;13.52;;;;;;;;;;4823195;29;20230;-61
2022/05/07 21:09:12;;;;;;;31.15;15.18;;;;;;;;;;4837199;29;20062;-61
2022/05/07 21:11:38;;;;;;;30.90;16.08;;;;;;;;;;4841170;29;20483;-60
2022/05/07 21:14:05;;;;;;;42.15;17.45;;;;;;;;;;4839634;29;20136;-60
2022/05/07 21:16:32;;;;;;;33.28;15.13;;;;;;;;;;4840391;29;20026;-61
2022/05/07 21:18:59;;;;;;;32.88;15.40;;;;;;;;;;4840674;29;20074;-60
2022/05/07 21:21:25;;;;;;;34.67;16.17;;;;;;;;;;4840880;29;20083;-60
2022/05/07 21:23:51;;;;;;;47.08;18.88;;;;;;;;;;4840824;29;20030;-61
2022/05/07 21:26:40;;;;;;;45.42;18.77;;;;;;;;;;4840862;29;20027;-61
2022/05/07 21:29:04;;;;;;;41.08;17.90;;;;;;;;;;4838808;29;20376;-62
2022/05/07 21:31:31;;;;;;;40.22;17.05;;;;;;;;;;4840184;29;20029;-61
2022/05/07 21:33:57;;;;;;;44.08;18.50;;;;;;;;;;4839485;29;20030;-61
2022/05/07 21:36:23;;;;;;;37.58;16.30;;;;;;;;;;4839776;29;20109;-61
2022/05/07 21:38:49;;;;;;;41.30;18.65;;;;;;;;;;4839399;29;20041;-61
2022/05/07 21:41:16;;;;;;;38.30;17.65;;;;;;;;;;4839105;29;20026;-60
2022/05/07 21:43:42;;;;;;;47.80;16.98;;;;;;;;;;4839428;29;20026;-60
2022/05/07 21:46:08;;;;;;;36.03;15.38;;;;;;;;;;4840163;29;20506;-62